sensor_id;sensor_type;location;lat;lon;timestamp;P1;durP1;ratioP1;P2;durP2;ratioP2
78925;SDS011;68321;51.276;7.208;2023-06-05T00:01:58;6.00;;;2.20;;
78925;SDS011;68321;51.276;7.208;2023-06-05T00:04:23;10.90;;;3.47;;
78925;SDS011;68321;51.276;7.208;2023-06-05T00:06:49;3.60;;;1.83;;
78925;SDS011;68321;51.276;7.208;2023-06-05T00:09:18;4.35;;;1.75;;
78925;SDS011;68321;51.276;7.208;2023-06-05T00:11:43;2.90;;;1.83;;
78925;SDS011;68321;51.276;7.208;2023-06-05T00:14:08;7.17;;;2.03;;
78925;SDS011;68321;51.276;7.208;2023-06-05T00:16:34;6.13;;;2.03;;
78925;SDS011;68321;51.276;7.208;2023-06-05T00:19:00;4.47;;;2.03;;
78925;SDS011;68321;51.276;7.208;2023-06-05T00:21:25;3.78;;;1.98;;
78925;SDS011;68321;51.276;7.208;2023-06-05T00:23:51;5.10;;;2.30;;
78925;SDS011;68321;51.276;7.208;2023-06-05T00:26:16;5.60;;;1.97;;
78925;SDS011;68321;51.276;7.208;2023-06-05T00:28:41;5.25;;;2.08;;
78925;SDS011;68321;51.276;7.208;2023-06-05T00:31:07;3.77;;;2.10;;
78925;SDS011;68321;51.276;7.208;2023-06-05T00:33:32;5.18;;;2.20;;
78925;SDS011;68321;51.276;7.208;2023-06-05T00:35:58;5.53;;;2.00;;
78925;SDS011;68321;51.276;7.208;2023-06-05T00:38:23;4.57;;;2.03;;
78925;SDS011;68321;51.276;7.208;2023-06-05T00:40:48;4.47;;;2.00;;
78925;SDS011;68321;51.276;7.208;2023-06-05T00:43:14;6.20;;;2.95;;
78925;SDS011;68321;51.276;7.208;2023-06-05T00:45:39;5.75;;;2.30;;
78925;SDS011;68321;51.276;7.208;2023-06-05T00:48:04;4.05;;;1.85;;
78925;SDS011;68321;51.276;7.208;2023-06-05T00:50:31;5.22;;;2.47;;
78925;SDS011;68321;51.276;7.208;2023-06-05T00:52:57;7.57;;;3.88;;
78925;SDS011;68321;51.276;7.208;2023-06-05T00:55:23;4.47;;;2.25;;
78925;SDS011;68321;51.276;7.208;2023-06-05T00:57:51;4.53;;;1.88;;
78925;SDS011;68321;51.276;7.208;2023-06-05T01:00:17;5.40;;;2.47;;
78925;SDS011;68321;51.276;7.208;2023-06-05T01:02:43;5.40;;;2.10;;
78925;SDS011;68321;51.276;7.208;2023-06-05T01:05:09;7.32;;;2.58;;
78925;SDS011;68321;51.276;7.208;2023-06-05T01:07:35;7.07;;;2.33;;
78925;SDS011;68321;51.276;7.208;2023-06-05T01:10:03;5.93;;;2.20;;
78925;SDS011;68321;51.276;7.208;2023-06-05T01:12:32;6.47;;;2.28;;
78925;SDS011;68321;51.276;7.208;2023-06-05T01:15:05;2.90;;;1.80;;
78925;SDS011;68321;51.276;7.208;2023-06-05T01:17:31;3.80;;;2.45;;
78925;SDS011;68321;51.276;7.208;2023-06-05T01:20:00;4.20;;;2.13;;
78925;SDS011;68321;51.276;7.208;2023-06-05T01:22:31;5.35;;;2.00;;
78925;SDS011;68321;51.276;7.208;2023-06-05T01:24:57;5.72;;;2.58;;
78925;SDS011;68321;51.276;7.208;2023-06-05T01:27:30;3.47;;;2.40;;
78925;SDS011;68321;51.276;7.208;2023-06-05T01:30:05;4.53;;;2.30;;
78925;SDS011;68321;51.276;7.208;2023-06-05T01:33:19;6.25;;;2.50;;
78925;SDS011;68321;51.276;7.208;2023-06-05T01:35:38;4.53;;;2.35;;
78925;SDS011;68321;51.276;7.208;2023-06-05T01:38:05;4.32;;;1.98;;
78925;SDS011;68321;51.276;7.208;2023-06-05T01:40:31;5.20;;;2.35;;
78925;SDS011;68321;51.276;7.208;2023-06-05T01:42:58;3.78;;;1.92;;
78925;SDS011;68321;51.276;7.208;2023-06-05T01:45:25;4.93;;;2.35;;
78925;SDS011;68321;51.276;7.208;2023-06-05T01:47:50;5.05;;;2.65;;
78925;SDS011;68321;51.276;7.208;2023-06-05T01:50:16;5.00;;;2.08;;
78925;SDS011;68321;51.276;7.208;2023-06-05T01:52:42;4.18;;;2.60;;
78925;SDS011;68321;51.276;7.208;2023-06-05T01:55:13;8.52;;;2.63;;
78925;SDS011;68321;51.276;7.208;2023-06-05T01:57:45;4.55;;;2.22;;
78925;SDS011;68321;51.276;7.208;2023-06-05T02:00:10;5.43;;;2.50;;
78925;SDS011;68321;51.276;7.208;2023-06-05T02:02:40;6.60;;;2.35;;
78925;SDS011;68321;51.276;7.208;2023-06-05T02:05:07;4.07;;;2.30;;
78925;SDS011;68321;51.276;7.208;2023-06-05T02:07:33;6.18;;;2.75;;
78925;SDS011;68321;51.276;7.208;2023-06-05T02:10:01;4.95;;;2.80;;
78925;SDS011;68321;51.276;7.208;2023-06-05T02:14:55;5.18;;;2.42;;
78925;SDS011;68321;51.276;7.208;2023-06-05T02:17:22;3.65;;;2.10;;
78925;SDS011;68321;51.276;7.208;2023-06-05T02:19:49;6.22;;;2.22;;
78925;SDS011;68321;51.276;7.208;2023-06-05T02:22:15;5.38;;;2.97;;
78925;SDS011;68321;51.276;7.208;2023-06-05T02:24:40;8.40;;;3.30;;
78925;SDS011;68321;51.276;7.208;2023-06-05T02:27:06;5.65;;;2.53;;
78925;SDS011;68321;51.276;7.208;2023-06-05T02:29:33;6.15;;;3.30;;
78925;SDS011;68321;51.276;7.208;2023-06-05T02:31:58;5.32;;;2.85;;
78925;SDS011;68321;51.276;7.208;2023-06-05T02:34:23;3.90;;;2.50;;
78925;SDS011;68321;51.276;7.208;2023-06-05T02:36:49;4.57;;;2.30;;
78925;SDS011;68321;51.276;7.208;2023-06-05T02:39:15;4.47;;;2.88;;
78925;SDS011;68321;51.276;7.208;2023-06-05T02:41:41;6.55;;;2.40;;
78925;SDS011;68321;51.276;7.208;2023-06-05T02:44:07;7.32;;;2.75;;
78925;SDS011;68321;51.276;7.208;2023-06-05T02:46:33;6.57;;;2.72;;
78925;SDS011;68321;51.276;7.208;2023-06-05T02:48:58;7.68;;;3.00;;
78925;SDS011;68321;51.276;7.208;2023-06-05T02:51:23;6.10;;;2.85;;
78925;SDS011;68321;51.276;7.208;2023-06-05T02:53:49;6.68;;;2.60;;
78925;SDS011;68321;51.276;7.208;2023-06-05T02:56:14;8.77;;;2.60;;
78925;SDS011;68321;51.276;7.208;2023-06-05T02:58:40;4.20;;;2.55;;
78925;SDS011;68321;51.276;7.208;2023-06-05T03:01:08;6.53;;;3.15;;
78925;SDS011;68321;51.276;7.208;2023-06-05T03:03:35;7.43;;;3.17;;
78925;SDS011;68321;51.276;7.208;2023-06-05T03:06:01;7.50;;;3.10;;
78925;SDS011;68321;51.276;7.208;2023-06-05T03:08:32;10.88;;;3.13;;
78925;SDS011;68321;51.276;7.208;2023-06-05T03:11:02;5.75;;;2.95;;
78925;SDS011;68321;51.276;7.208;2023-06-05T03:13:28;7.32;;;3.08;;
78925;SDS011;68321;51.276;7.208;2023-06-05T03:15:54;6.18;;;3.10;;
78925;SDS011;68321;51.276;7.208;2023-06-05T03:18:22;6.95;;;3.00;;
78925;SDS011;68321;51.276;7.208;2023-06-05T03:23:19;6.75;;;3.05;;
78925;SDS011;68321;51.276;7.208;2023-06-05T03:25:48;6.78;;;3.55;;
78925;SDS011;68321;51.276;7.208;2023-06-05T03:28:14;4.43;;;2.60;;
78925;SDS011;68321;51.276;7.208;2023-06-05T03:30:40;7.28;;;2.83;;
78925;SDS011;68321;51.276;7.208;2023-06-05T03:33:05;5.18;;;3.75;;
78925;SDS011;68321;51.276;7.208;2023-06-05T03:35:31;8.45;;;3.50;;
78925;SDS011;68321;51.276;7.208;2023-06-05T03:37:57;6.88;;;2.97;;
78925;SDS011;68321;51.276;7.208;2023-06-05T03:40:23;5.88;;;2.88;;
78925;SDS011;68321;51.276;7.208;2023-06-05T03:42:48;6.30;;;3.37;;
78925;SDS011;68321;51.276;7.208;2023-06-05T03:45:14;5.07;;;3.00;;
78925;SDS011;68321;51.276;7.208;2023-06-05T03:47:40;5.93;;;3.22;;
78925;SDS011;68321;51.276;7.208;2023-06-05T03:50:06;6.63;;;3.58;;
78925;SDS011;68321;51.276;7.208;2023-06-05T03:52:31;5.22;;;3.00;;
78925;SDS011;68321;51.276;7.208;2023-06-05T03:54:57;5.93;;;3.30;;
78925;SDS011;68321;51.276;7.208;2023-06-05T03:57:22;8.70;;;4.10;;
78925;SDS011;68321;51.276;7.208;2023-06-05T03:59:48;10.90;;;3.78;;
78925;SDS011;68321;51.276;7.208;2023-06-05T04:02:13;5.70;;;3.40;;
78925;SDS011;68321;51.276;7.208;2023-06-05T04:04:38;10.13;;;3.72;;
78925;SDS011;68321;51.276;7.208;2023-06-05T04:07:05;6.00;;;3.50;;
78925;SDS011;68321;51.276;7.208;2023-06-05T04:09:31;6.80;;;3.13;;
78925;SDS011;68321;51.276;7.208;2023-06-05T04:11:56;7.85;;;3.85;;
78925;SDS011;68321;51.276;7.208;2023-06-05T04:14:22;8.88;;;3.88;;
78925;SDS011;68321;51.276;7.208;2023-06-05T04:16:48;5.75;;;2.97;;
78925;SDS011;68321;51.276;7.208;2023-06-05T04:19:13;7.00;;;3.53;;
78925;SDS011;68321;51.276;7.208;2023-06-05T04:21:38;6.87;;;3.73;;
78925;SDS011;68321;51.276;7.208;2023-06-05T04:24:05;7.20;;;3.40;;
78925;SDS011;68321;51.276;7.208;2023-06-05T04:26:33;6.10;;;3.55;;
78925;SDS011;68321;51.276;7.208;2023-06-05T04:28:59;6.68;;;3.90;;
78925;SDS011;68321;51.276;7.208;2023-06-05T04:31:25;6.10;;;3.78;;
78925;SDS011;68321;51.276;7.208;2023-06-05T04:33:50;5.73;;;3.83;;
78925;SDS011;68321;51.276;7.208;2023-06-05T04:36:15;5.40;;;3.03;;
78925;SDS011;68321;51.276;7.208;2023-06-05T04:38:43;6.25;;;3.30;;
78925;SDS011;68321;51.276;7.208;2023-06-05T04:41:08;6.00;;;3.50;;
78925;SDS011;68321;51.276;7.208;2023-06-05T04:43:35;6.10;;;3.60;;
78925;SDS011;68321;51.276;7.208;2023-06-05T04:46:01;6.25;;;3.95;;
78925;SDS011;68321;51.276;7.208;2023-06-05T04:48:26;5.88;;;3.58;;
78925;SDS011;68321;51.276;7.208;2023-06-05T04:50:52;8.55;;;3.75;;
78925;SDS011;68321;51.276;7.208;2023-06-05T04:53:18;6.43;;;3.60;;
78925;SDS011;68321;51.276;7.208;2023-06-05T04:55:43;7.43;;;3.65;;
78925;SDS011;68321;51.276;7.208;2023-06-05T04:58:10;8.88;;;4.10;;
78925;SDS011;68321;51.276;7.208;2023-06-05T05:00:36;7.55;;;4.50;;
78925;SDS011;68321;51.276;7.208;2023-06-05T05:03:01;7.05;;;3.97;;
78925;SDS011;68321;51.276;7.208;2023-06-05T05:05:27;7.00;;;3.95;;
78925;SDS011;68321;51.276;7.208;2023-06-05T05:07:53;8.52;;;3.72;;
78925;SDS011;68321;51.276;7.208;2023-06-05T05:10:18;7.28;;;3.80;;
78925;SDS011;68321;51.276;7.208;2023-06-05T05:12:43;6.35;;;3.95;;
78925;SDS011;68321;51.276;7.208;2023-06-05T05:15:09;8.82;;;4.57;;
78925;SDS011;68321;51.276;7.208;2023-06-05T05:17:35;6.90;;;4.15;;
78925;SDS011;68321;51.276;7.208;2023-06-05T05:20:00;10.15;;;4.30;;
78925;SDS011;68321;51.276;7.208;2023-06-05T05:22:28;7.90;;;3.60;;
78925;SDS011;68321;51.276;7.208;2023-06-05T05:24:54;5.70;;;3.40;;
78925;SDS011;68321;51.276;7.208;2023-06-05T05:27:19;6.15;;;3.63;;
78925;SDS011;68321;51.276;7.208;2023-06-05T05:29:44;7.78;;;3.65;;
78925;SDS011;68321;51.276;7.208;2023-06-05T05:32:10;4.78;;;3.30;;
78925;SDS011;68321;51.276;7.208;2023-06-05T05:34:36;8.18;;;3.75;;
78925;SDS011;68321;51.276;7.208;2023-06-05T05:37:03;5.93;;;3.83;;
78925;SDS011;68321;51.276;7.208;2023-06-05T05:39:28;9.10;;;3.78;;
78925;SDS011;68321;51.276;7.208;2023-06-05T05:41:54;7.18;;;3.85;;
78925;SDS011;68321;51.276;7.208;2023-06-05T05:44:19;5.20;;;3.43;;
78925;SDS011;68321;51.276;7.208;2023-06-05T05:46:45;7.85;;;3.80;;
78925;SDS011;68321;51.276;7.208;2023-06-05T05:49:12;5.90;;;3.63;;
78925;SDS011;68321;51.276;7.208;2023-06-05T05:51:37;6.43;;;3.53;;
78925;SDS011;68321;51.276;7.208;2023-06-05T05:54:03;6.13;;;3.60;;
78925;SDS011;68321;51.276;7.208;2023-06-05T05:56:28;6.40;;;3.33;;
78925;SDS011;68321;51.276;7.208;2023-06-05T05:58:53;6.55;;;3.50;;
78925;SDS011;68321;51.276;7.208;2023-06-05T06:01:19;7.75;;;3.72;;
78925;SDS011;68321;51.276;7.208;2023-06-05T06:03:44;7.18;;;3.83;;
78925;SDS011;68321;51.276;7.208;2023-06-05T06:06:10;5.82;;;3.33;;
78925;SDS011;68321;51.276;7.208;2023-06-05T06:08:37;5.20;;;2.83;;
78925;SDS011;68321;51.276;7.208;2023-06-05T06:11:02;10.70;;;3.70;;
78925;SDS011;68321;51.276;7.208;2023-06-05T06:13:31;5.47;;;3.67;;
78925;SDS011;68321;51.276;7.208;2023-06-05T06:15:58;5.90;;;3.95;;
78925;SDS011;68321;51.276;7.208;2023-06-05T06:18:24;5.30;;;3.70;;
78925;SDS011;68321;51.276;7.208;2023-06-05T06:20:50;7.40;;;3.78;;
78925;SDS011;68321;51.276;7.208;2023-06-05T06:23:15;8.30;;;3.20;;
78925;SDS011;68321;51.276;7.208;2023-06-05T06:25:41;8.32;;;4.18;;
78925;SDS011;68321;51.276;7.208;2023-06-05T06:28:06;7.17;;;3.40;;
78925;SDS011;68321;51.276;7.208;2023-06-05T06:30:32;7.82;;;4.95;;
78925;SDS011;68321;51.276;7.208;2023-06-05T06:32:57;8.63;;;3.35;;
78925;SDS011;68321;51.276;7.208;2023-06-05T06:35:26;6.63;;;3.28;;
78925;SDS011;68321;51.276;7.208;2023-06-05T06:37:55;4.68;;;2.95;;
78925;SDS011;68321;51.276;7.208;2023-06-05T06:40:21;6.63;;;4.05;;
78925;SDS011;68321;51.276;7.208;2023-06-05T06:42:47;9.45;;;5.55;;
78925;SDS011;68321;51.276;7.208;2023-06-05T06:45:12;4.65;;;3.33;;
78925;SDS011;68321;51.276;7.208;2023-06-05T06:47:37;5.73;;;3.13;;
78925;SDS011;68321;51.276;7.208;2023-06-05T06:50:03;8.07;;;3.25;;
78925;SDS011;68321;51.276;7.208;2023-06-05T06:52:29;6.50;;;3.25;;
78925;SDS011;68321;51.276;7.208;2023-06-05T06:54:55;7.55;;;2.55;;
78925;SDS011;68321;51.276;7.208;2023-06-05T06:57:21;7.65;;;3.15;;
78925;SDS011;68321;51.276;7.208;2023-06-05T06:59:46;7.22;;;4.10;;
78925;SDS011;68321;51.276;7.208;2023-06-05T07:02:13;6.27;;;3.17;;
78925;SDS011;68321;51.276;7.208;2023-06-05T07:04:39;7.75;;;4.65;;
78925;SDS011;68321;51.276;7.208;2023-06-05T07:07:08;4.93;;;3.35;;
78925;SDS011;68321;51.276;7.208;2023-06-05T07:09:35;6.00;;;3.08;;
78925;SDS011;68321;51.276;7.208;2023-06-05T07:12:01;6.55;;;3.10;;
78925;SDS011;68321;51.276;7.208;2023-06-05T07:14:30;4.28;;;3.05;;
78925;SDS011;68321;51.276;7.208;2023-06-05T07:16:55;8.30;;;2.78;;
78925;SDS011;68321;51.276;7.208;2023-06-05T07:19:21;8.55;;;3.15;;
78925;SDS011;68321;51.276;7.208;2023-06-05T07:21:47;3.75;;;2.70;;
78925;SDS011;68321;51.276;7.208;2023-06-05T07:24:12;4.30;;;2.70;;
78925;SDS011;68321;51.276;7.208;2023-06-05T07:26:37;6.77;;;2.70;;
78925;SDS011;68321;51.276;7.208;2023-06-05T07:29:03;8.50;;;3.40;;
78925;SDS011;68321;51.276;7.208;2023-06-05T07:31:28;5.68;;;2.88;;
78925;SDS011;68321;51.276;7.208;2023-06-05T07:33:55;5.90;;;2.50;;
78925;SDS011;68321;51.276;7.208;2023-06-05T07:36:20;4.70;;;2.63;;
78925;SDS011;68321;51.276;7.208;2023-06-05T07:38:47;7.03;;;2.67;;
78925;SDS011;68321;51.276;7.208;2023-06-05T07:41:13;8.13;;;2.15;;
78925;SDS011;68321;51.276;7.208;2023-06-05T07:43:38;5.03;;;2.72;;
78925;SDS011;68321;51.276;7.208;2023-06-05T07:46:05;8.35;;;3.03;;
78925;SDS011;68321;51.276;7.208;2023-06-05T07:48:30;7.88;;;2.53;;
78925;SDS011;68321;51.276;7.208;2023-06-05T07:50:56;6.40;;;2.67;;
78925;SDS011;68321;51.276;7.208;2023-06-05T07:53:21;6.73;;;2.57;;
78925;SDS011;68321;51.276;7.208;2023-06-05T07:55:47;6.00;;;2.80;;
78925;SDS011;68321;51.276;7.208;2023-06-05T07:58:13;3.80;;;2.60;;
78925;SDS011;68321;51.276;7.208;2023-06-05T08:00:40;5.72;;;2.50;;
78925;SDS011;68321;51.276;7.208;2023-06-05T08:03:15;9.40;;;3.58;;
78925;SDS011;68321;51.276;7.208;2023-06-05T08:05:47;7.50;;;2.90;;
78925;SDS011;68321;51.276;7.208;2023-06-05T08:08:13;3.97;;;2.17;;
78925;SDS011;68321;51.276;7.208;2023-06-05T08:10:39;7.55;;;2.40;;
78925;SDS011;68321;51.276;7.208;2023-06-05T08:13:06;5.10;;;2.47;;
78925;SDS011;68321;51.276;7.208;2023-06-05T08:15:32;6.25;;;2.58;;
78925;SDS011;68321;51.276;7.208;2023-06-05T08:17:57;9.07;;;5.60;;
78925;SDS011;68321;51.276;7.208;2023-06-05T08:20:23;7.03;;;2.42;;
78925;SDS011;68321;51.276;7.208;2023-06-05T08:22:48;4.33;;;2.20;;
78925;SDS011;68321;51.276;7.208;2023-06-05T08:25:14;9.00;;;2.95;;
78925;SDS011;68321;51.276;7.208;2023-06-05T08:27:39;4.60;;;2.70;;
78925;SDS011;68321;51.276;7.208;2023-06-05T08:30:05;8.50;;;2.80;;
78925;SDS011;68321;51.276;7.208;2023-06-05T08:32:31;5.07;;;2.40;;
78925;SDS011;68321;51.276;7.208;2023-06-05T08:34:57;4.57;;;2.50;;
78925;SDS011;68321;51.276;7.208;2023-06-05T08:37:23;5.63;;;2.63;;
78925;SDS011;68321;51.276;7.208;2023-06-05T08:39:48;6.88;;;2.97;;
78925;SDS011;68321;51.276;7.208;2023-06-05T08:42:15;5.25;;;2.38;;
78925;SDS011;68321;51.276;7.208;2023-06-05T08:44:43;5.45;;;3.05;;
78925;SDS011;68321;51.276;7.208;2023-06-05T08:47:12;4.97;;;2.70;;
78925;SDS011;68321;51.276;7.208;2023-06-05T08:49:38;6.40;;;2.80;;
78925;SDS011;68321;51.276;7.208;2023-06-05T08:52:06;6.10;;;2.78;;
78925;SDS011;68321;51.276;7.208;2023-06-05T08:54:42;6.20;;;2.97;;
78925;SDS011;68321;51.276;7.208;2023-06-05T08:57:08;6.38;;;3.10;;
78925;SDS011;68321;51.276;7.208;2023-06-05T08:59:33;5.85;;;2.60;;
78925;SDS011;68321;51.276;7.208;2023-06-05T09:01:59;4.80;;;2.60;;
78925;SDS011;68321;51.276;7.208;2023-06-05T09:04:25;5.35;;;2.53;;
78925;SDS011;68321;51.276;7.208;2023-06-05T09:06:55;6.45;;;2.70;;
78925;SDS011;68321;51.276;7.208;2023-06-05T09:09:21;7.45;;;2.88;;
78925;SDS011;68321;51.276;7.208;2023-06-05T09:11:46;6.25;;;3.20;;
78925;SDS011;68321;51.276;7.208;2023-06-05T09:14:12;5.40;;;3.80;;
78925;SDS011;68321;51.276;7.208;2023-06-05T09:16:41;7.03;;;2.70;;
78925;SDS011;68321;51.276;7.208;2023-06-05T09:19:08;4.07;;;3.28;;
78925;SDS011;68321;51.276;7.208;2023-06-05T09:21:36;8.52;;;3.22;;
78925;SDS011;68321;51.276;7.208;2023-06-05T09:24:12;4.50;;;2.67;;
78925;SDS011;68321;51.276;7.208;2023-06-05T09:26:55;4.88;;;2.90;;
78925;SDS011;68321;51.276;7.208;2023-06-05T09:31:54;4.40;;;2.97;;
78925;SDS011;68321;51.276;7.208;2023-06-05T09:34:21;5.63;;;2.67;;
78925;SDS011;68321;51.276;7.208;2023-06-05T09:36:47;4.85;;;3.33;;
78925;SDS011;68321;51.276;7.208;2023-06-05T09:39:13;4.85;;;2.63;;
78925;SDS011;68321;51.276;7.208;2023-06-05T09:41:43;4.43;;;2.60;;
78925;SDS011;68321;51.276;7.208;2023-06-05T09:44:14;4.55;;;3.05;;
78925;SDS011;68321;51.276;7.208;2023-06-05T09:46:55;8.00;;;2.97;;
78925;SDS011;68321;51.276;7.208;2023-06-05T09:49:32;4.70;;;2.58;;
78925;SDS011;68321;51.276;7.208;2023-06-05T09:52:11;6.00;;;2.78;;
78925;SDS011;68321;51.276;7.208;2023-06-05T09:54:38;7.50;;;2.70;;
78925;SDS011;68321;51.276;7.208;2023-06-05T09:57:05;4.20;;;2.50;;
78925;SDS011;68321;51.276;7.208;2023-06-05T09:59:32;5.95;;;3.08;;
78925;SDS011;68321;51.276;7.208;2023-06-05T10:02:00;5.85;;;2.83;;
78925;SDS011;68321;51.276;7.208;2023-06-05T10:04:27;4.03;;;2.65;;
78925;SDS011;68321;51.276;7.208;2023-06-05T10:06:55;4.60;;;2.45;;
78925;SDS011;68321;51.276;7.208;2023-06-05T10:09:25;6.55;;;2.88;;
78925;SDS011;68321;51.276;7.208;2023-06-05T10:11:50;6.22;;;2.95;;
78925;SDS011;68321;51.276;7.208;2023-06-05T10:14:17;4.90;;;2.83;;
78925;SDS011;68321;51.276;7.208;2023-06-05T10:16:43;4.75;;;2.67;;
78925;SDS011;68321;51.276;7.208;2023-06-05T10:19:08;5.53;;;2.72;;
78925;SDS011;68321;51.276;7.208;2023-06-05T10:21:34;6.72;;;2.88;;
78925;SDS011;68321;51.276;7.208;2023-06-05T10:24:07;4.07;;;2.72;;
78925;SDS011;68321;51.276;7.208;2023-06-05T10:26:53;3.97;;;2.60;;
78925;SDS011;68321;51.276;7.208;2023-06-05T10:40:37;4.63;;;2.80;;
78925;SDS011;68321;51.276;7.208;2023-06-05T10:45:50;4.13;;;2.22;;
78925;SDS011;68321;51.276;7.208;2023-06-05T10:48:16;5.53;;;2.38;;
78925;SDS011;68321;51.276;7.208;2023-06-05T10:50:41;4.15;;;2.38;;
78925;SDS011;68321;51.276;7.208;2023-06-05T10:53:07;4.72;;;2.05;;
78925;SDS011;68321;51.276;7.208;2023-06-05T10:56:00;5.95;;;2.42;;
78925;SDS011;68321;51.276;7.208;2023-06-05T10:58:25;4.68;;;2.15;;
78925;SDS011;68321;51.276;7.208;2023-06-05T11:01:15;6.18;;;2.20;;
78925;SDS011;68321;51.276;7.208;2023-06-05T11:03:53;2.92;;;1.83;;
78925;SDS011;68321;51.276;7.208;2023-06-05T11:06:21;5.68;;;2.40;;
78925;SDS011;68321;51.276;7.208;2023-06-05T11:09:29;6.47;;;2.63;;
78925;SDS011;68321;51.276;7.208;2023-06-05T11:14:21;4.38;;;2.80;;
78925;SDS011;68321;51.276;7.208;2023-06-05T11:16:46;4.75;;;2.10;;
78925;SDS011;68321;51.276;7.208;2023-06-05T11:19:34;6.05;;;2.28;;
78925;SDS011;68321;51.276;7.208;2023-06-05T11:22:09;5.05;;;2.15;;
78925;SDS011;68321;51.276;7.208;2023-06-05T11:24:36;4.68;;;2.10;;
78925;SDS011;68321;51.276;7.208;2023-06-05T11:27:03;4.97;;;2.40;;
78925;SDS011;68321;51.276;7.208;2023-06-05T11:29:30;5.30;;;2.25;;
78925;SDS011;68321;51.276;7.208;2023-06-05T11:31:56;4.90;;;2.00;;
78925;SDS011;68321;51.276;7.208;2023-06-05T11:34:22;4.68;;;2.42;;
78925;SDS011;68321;51.276;7.208;2023-06-05T11:36:47;2.90;;;2.40;;
78925;SDS011;68321;51.276;7.208;2023-06-05T11:39:15;5.63;;;2.30;;
78925;SDS011;68321;51.276;7.208;2023-06-05T11:41:47;4.68;;;1.98;;
78925;SDS011;68321;51.276;7.208;2023-06-05T11:44:15;4.43;;;1.98;;
78925;SDS011;68321;51.276;7.208;2023-06-05T11:46:41;3.72;;;2.63;;
78925;SDS011;68321;51.276;7.208;2023-06-05T11:49:26;7.68;;;2.67;;
78925;SDS011;68321;51.276;7.208;2023-06-05T11:51:53;3.22;;;1.77;;
78925;SDS011;68321;51.276;7.208;2023-06-05T11:54:26;6.97;;;2.45;;
78925;SDS011;68321;51.276;7.208;2023-06-05T11:57:00;4.97;;;1.98;;
78925;SDS011;68321;51.276;7.208;2023-06-05T11:59:33;4.95;;;1.90;;
78925;SDS011;68321;51.276;7.208;2023-06-05T12:02:00;3.92;;;2.15;;
78925;SDS011;68321;51.276;7.208;2023-06-05T12:04:25;4.60;;;2.47;;
78925;SDS011;68321;51.276;7.208;2023-06-05T12:06:51;4.75;;;1.80;;
78925;SDS011;68321;51.276;7.208;2023-06-05T12:09:18;3.67;;;1.98;;
78925;SDS011;68321;51.276;7.208;2023-06-05T12:11:43;3.42;;;2.10;;
78925;SDS011;68321;51.276;7.208;2023-06-05T12:14:10;3.10;;;1.90;;
78925;SDS011;68321;51.276;7.208;2023-06-05T12:16:37;4.70;;;2.60;;
78925;SDS011;68321;51.276;7.208;2023-06-05T12:19:12;4.60;;;2.00;;
78925;SDS011;68321;51.276;7.208;2023-06-05T12:21:44;4.35;;;2.22;;
78925;SDS011;68321;51.276;7.208;2023-06-05T12:24:11;3.78;;;1.92;;
78925;SDS011;68321;51.276;7.208;2023-06-05T12:26:50;7.05;;;2.50;;
78925;SDS011;68321;51.276;7.208;2023-06-05T12:29:20;3.15;;;1.90;;
78925;SDS011;68321;51.276;7.208;2023-06-05T12:31:47;6.85;;;2.38;;
78925;SDS011;68321;51.276;7.208;2023-06-05T12:34:12;4.55;;;2.13;;
78925;SDS011;68321;51.276;7.208;2023-06-05T12:36:40;4.90;;;2.33;;
78925;SDS011;68321;51.276;7.208;2023-06-05T12:39:09;4.15;;;2.17;;
78925;SDS011;68321;51.276;7.208;2023-06-05T12:41:35;5.60;;;1.92;;
78925;SDS011;68321;51.276;7.208;2023-06-05T12:44:04;5.57;;;2.28;;
78925;SDS011;68321;51.276;7.208;2023-06-05T12:46:30;3.45;;;1.92;;
78925;SDS011;68321;51.276;7.208;2023-06-05T12:48:57;3.50;;;1.98;;
78925;SDS011;68321;51.276;7.208;2023-06-05T12:51:24;4.68;;;2.10;;
78925;SDS011;68321;51.276;7.208;2023-06-05T12:53:51;3.90;;;2.10;;
78925;SDS011;68321;51.276;7.208;2023-06-05T12:56:17;4.30;;;1.95;;
78925;SDS011;68321;51.276;7.208;2023-06-05T12:58:43;3.63;;;2.20;;
78925;SDS011;68321;51.276;7.208;2023-06-05T13:01:08;3.58;;;1.83;;
78925;SDS011;68321;51.276;7.208;2023-06-05T13:03:34;4.00;;;2.25;;
78925;SDS011;68321;51.276;7.208;2023-06-05T13:05:59;3.10;;;1.90;;
78925;SDS011;68321;51.276;7.208;2023-06-05T13:08:24;5.72;;;2.20;;
78925;SDS011;68321;51.276;7.208;2023-06-05T13:10:50;3.67;;;2.08;;
78925;SDS011;68321;51.276;7.208;2023-06-05T13:13:16;3.25;;;1.77;;
78925;SDS011;68321;51.276;7.208;2023-06-05T13:15:41;3.25;;;1.98;;
78925;SDS011;68321;51.276;7.208;2023-06-05T13:18:07;4.38;;;2.30;;
78925;SDS011;68321;51.276;7.208;2023-06-05T13:20:34;3.10;;;1.90;;
78925;SDS011;68321;51.276;7.208;2023-06-05T13:23:00;3.28;;;1.88;;
78925;SDS011;68321;51.276;7.208;2023-06-05T13:25:25;4.47;;;2.17;;
78925;SDS011;68321;51.276;7.208;2023-06-05T13:27:51;4.75;;;1.83;;
78925;SDS011;68321;51.276;7.208;2023-06-05T13:30:16;2.90;;;1.80;;
78925;SDS011;68321;51.276;7.208;2023-06-05T13:32:42;2.33;;;1.60;;
78925;SDS011;68321;51.276;7.208;2023-06-05T13:35:09;3.95;;;2.10;;
78925;SDS011;68321;51.276;7.208;2023-06-05T13:37:36;6.97;;;2.40;;
78925;SDS011;68321;51.276;7.208;2023-06-05T13:40:02;2.60;;;1.90;;
78925;SDS011;68321;51.276;7.208;2023-06-05T13:42:31;7.10;;;2.20;;
78925;SDS011;68321;51.276;7.208;2023-06-05T13:44:57;6.32;;;2.30;;
78925;SDS011;68321;51.276;7.208;2023-06-05T13:47:22;6.23;;;2.10;;
78925;SDS011;68321;51.276;7.208;2023-06-05T13:49:47;2.88;;;2.00;;
78925;SDS011;68321;51.276;7.208;2023-06-05T13:52:13;6.17;;;2.10;;
78925;SDS011;68321;51.276;7.208;2023-06-05T13:54:38;3.43;;;1.87;;
78925;SDS011;68321;51.276;7.208;2023-06-05T13:57:06;4.95;;;2.15;;
78925;SDS011;68321;51.276;7.208;2023-06-05T13:59:32;5.97;;;2.00;;
78925;SDS011;68321;51.276;7.208;2023-06-05T14:01:57;7.10;;;2.55;;
78925;SDS011;68321;51.276;7.208;2023-06-05T14:04:22;5.20;;;2.57;;
78925;SDS011;68321;51.276;7.208;2023-06-05T14:06:48;4.18;;;2.45;;
78925;SDS011;68321;51.276;7.208;2023-06-05T14:09:13;4.87;;;1.90;;
78925;SDS011;68321;51.276;7.208;2023-06-05T14:11:39;3.13;;;1.97;;
78925;SDS011;68321;51.276;7.208;2023-06-05T14:14:09;3.03;;;1.75;;
78925;SDS011;68321;51.276;7.208;2023-06-05T14:16:34;3.95;;;2.10;;
78925;SDS011;68321;51.276;7.208;2023-06-05T14:19:00;4.17;;;1.97;;
78925;SDS011;68321;51.276;7.208;2023-06-05T14:21:25;4.57;;;1.83;;
78925;SDS011;68321;51.276;7.208;2023-06-05T14:23:51;5.68;;;2.53;;
78925;SDS011;68321;51.276;7.208;2023-06-05T14:26:16;6.30;;;2.70;;
78925;SDS011;68321;51.276;7.208;2023-06-05T14:28:41;7.63;;;2.77;;
78925;SDS011;68321;51.276;7.208;2023-06-05T14:31:07;4.53;;;2.50;;
78925;SDS011;68321;51.276;7.208;2023-06-05T14:33:32;3.43;;;2.03;;
78925;SDS011;68321;51.276;7.208;2023-06-05T14:35:58;3.95;;;2.15;;
78925;SDS011;68321;51.276;7.208;2023-06-05T14:38:24;3.15;;;1.83;;
78925;SDS011;68321;51.276;7.208;2023-06-05T14:40:49;2.63;;;1.70;;
78925;SDS011;68321;51.276;7.208;2023-06-05T14:43:16;6.03;;;1.90;;
78925;SDS011;68321;51.276;7.208;2023-06-05T14:45:41;10.10;;;3.08;;
78925;SDS011;68321;51.276;7.208;2023-06-05T14:48:07;6.90;;;3.65;;
78925;SDS011;68321;51.276;7.208;2023-06-05T14:50:36;8.82;;;2.10;;
78925;SDS011;68321;51.276;7.208;2023-06-05T14:53:01;5.43;;;2.08;;
78925;SDS011;68321;51.276;7.208;2023-06-05T14:55:27;5.40;;;2.17;;
78925;SDS011;68321;51.276;7.208;2023-06-05T14:57:52;5.82;;;2.10;;
78925;SDS011;68321;51.276;7.208;2023-06-05T15:00:18;6.22;;;3.50;;
78925;SDS011;68321;51.276;7.208;2023-06-05T15:02:43;7.05;;;3.67;;
78925;SDS011;68321;51.276;7.208;2023-06-05T15:05:08;3.35;;;2.22;;
78925;SDS011;68321;51.276;7.208;2023-06-05T15:07:35;4.28;;;1.88;;
78925;SDS011;68321;51.276;7.208;2023-06-05T15:10:07;4.03;;;2.15;;
78925;SDS011;68321;51.276;7.208;2023-06-05T15:12:35;4.68;;;2.20;;